sensor_id;sensor_type;location;lat;lon;timestamp;P1;durP1;ratioP1;P2;durP2;ratioP2
15883;SDS011;8040;50.254;10.960;2023-09-08T00:02:05;493.27;;;282.90;;
15883;SDS011;8040;50.254;10.960;2023-09-08T00:04:30;491.08;;;280.20;;
15883;SDS011;8040;50.254;10.960;2023-09-08T00:06:56;488.27;;;282.67;;
15883;SDS011;8040;50.254;10.960;2023-09-08T00:09:21;489.27;;;283.67;;
15883;SDS011;8040;50.254;10.960;2023-09-08T00:11:46;499.67;;;287.98;;
15883;SDS011;8040;50.254;10.960;2023-09-08T00:14:12;501.10;;;288.40;;
15883;SDS011;8040;50.254;10.960;2023-09-08T00:16:37;503.77;;;288.00;;
15883;SDS011;8040;50.254;10.960;2023-09-08T00:19:04;490.00;;;284.13;;
15883;SDS011;8040;50.254;10.960;2023-09-08T00:21:29;485.07;;;279.53;;
15883;SDS011;8040;50.254;10.960;2023-09-08T00:23:55;489.20;;;278.50;;
15883;SDS011;8040;50.254;10.960;2023-09-08T00:26:21;494.48;;;284.98;;
15883;SDS011;8040;50.254;10.960;2023-09-08T00:28:47;489.17;;;278.17;;
15883;SDS011;8040;50.254;10.960;2023-09-08T00:31:12;487.23;;;278.40;;
15883;SDS011;8040;50.254;10.960;2023-09-08T00:33:38;487.70;;;278.00;;
15883;SDS011;8040;50.254;10.960;2023-09-08T00:36:03;486.35;;;275.65;;
15883;SDS011;8040;50.254;10.960;2023-09-08T00:38:29;487.00;;;276.27;;
15883;SDS011;8040;50.254;10.960;2023-09-08T00:40:55;491.27;;;274.73;;
15883;SDS011;8040;50.254;10.960;2023-09-08T00:43:20;487.73;;;275.67;;
15883;SDS011;8040;50.254;10.960;2023-09-08T00:45:46;486.67;;;273.95;;
15883;SDS011;8040;50.254;10.960;2023-09-08T00:48:13;484.15;;;270.50;;
15883;SDS011;8040;50.254;10.960;2023-09-08T00:50:38;492.85;;;274.85;;
15883;SDS011;8040;50.254;10.960;2023-09-08T00:53:04;486.02;;;275.05;;
15883;SDS011;8040;50.254;10.960;2023-09-08T00:55:31;489.35;;;274.55;;
15883;SDS011;8040;50.254;10.960;2023-09-08T01:00:32;484.33;;;270.48;;
15883;SDS011;8040;50.254;10.960;2023-09-08T01:02:58;490.00;;;272.27;;
15883;SDS011;8040;50.254;10.960;2023-09-08T01:05:24;489.00;;;271.40;;
15883;SDS011;8040;50.254;10.960;2023-09-08T01:07:49;487.40;;;270.60;;
15883;SDS011;8040;50.254;10.960;2023-09-08T01:10:17;500.73;;;274.42;;
15883;SDS011;8040;50.254;10.960;2023-09-08T01:12:42;506.25;;;278.23;;
15883;SDS011;8040;50.254;10.960;2023-09-08T01:15:08;493.43;;;271.97;;
15883;SDS011;8040;50.254;10.960;2023-09-08T01:17:33;496.13;;;272.53;;
15883;SDS011;8040;50.254;10.960;2023-09-08T01:23:17;483.13;;;268.27;;
15883;SDS011;8040;50.254;10.960;2023-09-08T01:26:00;486.05;;;271.88;;
15883;SDS011;8040;50.254;10.960;2023-09-08T01:28:32;485.52;;;268.77;;
15883;SDS011;8040;50.254;10.960;2023-09-08T01:30:58;488.02;;;265.83;;
15883;SDS011;8040;50.254;10.960;2023-09-08T01:33:24;488.60;;;270.43;;
15883;SDS011;8040;50.254;10.960;2023-09-08T01:35:51;488.77;;;269.38;;
15883;SDS011;8040;50.254;10.960;2023-09-08T01:38:16;487.75;;;270.98;;
15883;SDS011;8040;50.254;10.960;2023-09-08T01:40:42;487.07;;;266.47;;
15883;SDS011;8040;50.254;10.960;2023-09-08T01:43:07;510.17;;;275.17;;
15883;SDS011;8040;50.254;10.960;2023-09-08T01:45:33;494.87;;;268.73;;
15883;SDS011;8040;50.254;10.960;2023-09-08T01:47:58;493.53;;;270.70;;
15883;SDS011;8040;50.254;10.960;2023-09-08T01:50:23;503.57;;;275.87;;
15883;SDS011;8040;50.254;10.960;2023-09-08T01:52:50;489.67;;;271.67;;
15883;SDS011;8040;50.254;10.960;2023-09-08T01:55:16;504.30;;;276.75;;
15883;SDS011;8040;50.254;10.960;2023-09-08T01:57:42;491.53;;;263.67;;
15883;SDS011;8040;50.254;10.960;2023-09-08T02:00:09;486.23;;;266.60;;
15883;SDS011;8040;50.254;10.960;2023-09-08T02:05:20;491.58;;;268.58;;
15883;SDS011;8040;50.254;10.960;2023-09-08T02:07:45;495.77;;;268.77;;
15883;SDS011;8040;50.254;10.960;2023-09-08T02:10:10;494.77;;;269.33;;
15883;SDS011;8040;50.254;10.960;2023-09-08T02:12:36;491.17;;;267.08;;
15883;SDS011;8040;50.254;10.960;2023-09-08T02:15:01;484.40;;;264.13;;
15883;SDS011;8040;50.254;10.960;2023-09-08T02:17:28;499.85;;;271.80;;
15883;SDS011;8040;50.254;10.960;2023-09-08T02:19:54;484.77;;;264.33;;
15883;SDS011;8040;50.254;10.960;2023-09-08T02:22:19;491.67;;;269.60;;
15883;SDS011;8040;50.254;10.960;2023-09-08T02:24:48;497.87;;;267.47;;
15883;SDS011;8040;50.254;10.960;2023-09-08T02:27:13;494.23;;;268.50;;
15883;SDS011;8040;50.254;10.960;2023-09-08T02:29:39;488.10;;;266.98;;
15883;SDS011;8040;50.254;10.960;2023-09-08T02:32:04;491.80;;;262.30;;
15883;SDS011;8040;50.254;10.960;2023-09-08T02:34:30;490.70;;;262.73;;
15883;SDS011;8040;50.254;10.960;2023-09-08T02:36:58;495.15;;;265.58;;
15883;SDS011;8040;50.254;10.960;2023-09-08T02:39:24;507.80;;;270.37;;
15883;SDS011;8040;50.254;10.960;2023-09-08T02:41:51;498.92;;;268.73;;
15883;SDS011;8040;50.254;10.960;2023-09-08T02:44:19;498.25;;;268.33;;
15883;SDS011;8040;50.254;10.960;2023-09-08T02:46:48;490.05;;;262.95;;
15883;SDS011;8040;50.254;10.960;2023-09-08T02:49:14;502.55;;;270.58;;
15883;SDS011;8040;50.254;10.960;2023-09-08T02:51:39;490.93;;;267.13;;
15883;SDS011;8040;50.254;10.960;2023-09-08T02:54:04;490.17;;;263.80;;
15883;SDS011;8040;50.254;10.960;2023-09-08T02:56:30;502.00;;;267.02;;
15883;SDS011;8040;50.254;10.960;2023-09-08T02:58:55;509.50;;;272.90;;
15883;SDS011;8040;50.254;10.960;2023-09-08T03:01:21;490.03;;;264.80;;
15883;SDS011;8040;50.254;10.960;2023-09-08T03:03:46;495.30;;;265.20;;
15883;SDS011;8040;50.254;10.960;2023-09-08T03:06:15;500.63;;;270.80;;
15883;SDS011;8040;50.254;10.960;2023-09-08T03:11:17;488.35;;;264.38;;
15883;SDS011;8040;50.254;10.960;2023-09-08T03:13:42;488.43;;;261.47;;
15883;SDS011;8040;50.254;10.960;2023-09-08T03:16:08;488.33;;;259.53;;
15883;SDS011;8040;50.254;10.960;2023-09-08T03:18:35;490.65;;;266.50;;
15883;SDS011;8040;50.254;10.960;2023-09-08T03:21:02;498.30;;;269.52;;
15883;SDS011;8040;50.254;10.960;2023-09-08T03:23:37;494.15;;;268.48;;
15883;SDS011;8040;50.254;10.960;2023-09-08T03:26:02;506.58;;;274.48;;
15883;SDS011;8040;50.254;10.960;2023-09-08T03:28:28;503.70;;;273.13;;
15883;SDS011;8040;50.254;10.960;2023-09-08T03:30:54;501.52;;;271.02;;
15883;SDS011;8040;50.254;10.960;2023-09-08T03:33:19;498.75;;;268.10;;
15883;SDS011;8040;50.254;10.960;2023-09-08T03:35:44;515.00;;;275.93;;
15883;SDS011;8040;50.254;10.960;2023-09-08T03:38:10;503.50;;;270.13;;
15883;SDS011;8040;50.254;10.960;2023-09-08T03:40:35;503.83;;;268.50;;
15883;SDS011;8040;50.254;10.960;2023-09-08T03:43:01;494.90;;;263.15;;
15883;SDS011;8040;50.254;10.960;2023-09-08T03:45:26;495.30;;;265.23;;
15883;SDS011;8040;50.254;10.960;2023-09-08T03:47:51;506.37;;;268.50;;
15883;SDS011;8040;50.254;10.960;2023-09-08T03:50:17;515.90;;;271.40;;
15883;SDS011;8040;50.254;10.960;2023-09-08T03:52:48;494.52;;;262.27;;
15883;SDS011;8040;50.254;10.960;2023-09-08T03:55:15;494.73;;;263.88;;
15883;SDS011;8040;50.254;10.960;2023-09-08T03:57:42;491.23;;;261.63;;
15883;SDS011;8040;50.254;10.960;2023-09-08T04:00:07;507.88;;;269.83;;
15883;SDS011;8040;50.254;10.960;2023-09-08T04:02:35;518.58;;;274.13;;
15883;SDS011;8040;50.254;10.960;2023-09-08T04:05:01;507.17;;;267.23;;
15883;SDS011;8040;50.254;10.960;2023-09-08T04:07:26;517.40;;;270.53;;
15883;SDS011;8040;50.254;10.960;2023-09-08T04:09:51;494.50;;;261.00;;
15883;SDS011;8040;50.254;10.960;2023-09-08T04:12:17;524.27;;;270.20;;
15883;SDS011;8040;50.254;10.960;2023-09-08T04:14:44;498.77;;;262.27;;
15883;SDS011;8040;50.254;10.960;2023-09-08T04:17:10;508.85;;;263.85;;
15883;SDS011;8040;50.254;10.960;2023-09-08T04:19:35;506.77;;;263.50;;
15883;SDS011;8040;50.254;10.960;2023-09-08T04:22:04;501.75;;;260.67;;
15883;SDS011;8040;50.254;10.960;2023-09-08T04:24:29;512.80;;;264.77;;
15883;SDS011;8040;50.254;10.960;2023-09-08T04:26:54;525.45;;;271.52;;
15883;SDS011;8040;50.254;10.960;2023-09-08T04:29:20;535.23;;;272.57;;
15883;SDS011;8040;50.254;10.960;2023-09-08T04:31:45;524.20;;;268.93;;
15883;SDS011;8040;50.254;10.960;2023-09-08T04:34:10;514.08;;;265.48;;
15883;SDS011;8040;50.254;10.960;2023-09-08T04:39:10;539.07;;;274.67;;
15883;SDS011;8040;50.254;10.960;2023-09-08T04:41:36;509.45;;;267.00;;
15883;SDS011;8040;50.254;10.960;2023-09-08T04:44:02;525.35;;;272.42;;
15883;SDS011;8040;50.254;10.960;2023-09-08T04:46:28;515.10;;;265.17;;
15883;SDS011;8040;50.254;10.960;2023-09-08T04:48:54;512.60;;;265.47;;
15883;SDS011;8040;50.254;10.960;2023-09-08T04:51:19;490.53;;;255.03;;
15883;SDS011;8040;50.254;10.960;2023-09-08T04:53:45;504.48;;;262.35;;
15883;SDS011;8040;50.254;10.960;2023-09-08T04:56:10;512.17;;;264.13;;
15883;SDS011;8040;50.254;10.960;2023-09-08T04:58:46;514.15;;;263.15;;
15883;SDS011;8040;50.254;10.960;2023-09-08T05:01:12;513.33;;;265.77;;
15883;SDS011;8040;50.254;10.960;2023-09-08T05:03:37;503.05;;;261.48;;
15883;SDS011;8040;50.254;10.960;2023-09-08T05:06:02;505.47;;;263.17;;
15883;SDS011;8040;50.254;10.960;2023-09-08T05:08:28;498.27;;;263.03;;
15883;SDS011;8040;50.254;10.960;2023-09-08T05:10:53;501.40;;;259.97;;
15883;SDS011;8040;50.254;10.960;2023-09-08T05:13:19;513.97;;;261.60;;
15883;SDS011;8040;50.254;10.960;2023-09-08T05:15:45;509.50;;;257.17;;
15883;SDS011;8040;50.254;10.960;2023-09-08T05:18:13;499.50;;;255.43;;
15883;SDS011;8040;50.254;10.960;2023-09-08T05:20:42;511.98;;;259.98;;
15883;SDS011;8040;50.254;10.960;2023-09-08T05:23:07;527.95;;;270.80;;
15883;SDS011;8040;50.254;10.960;2023-09-08T05:25:33;539.87;;;273.17;;
15883;SDS011;8040;50.254;10.960;2023-09-08T05:27:58;540.80;;;275.00;;
15883;SDS011;8040;50.254;10.960;2023-09-08T05:30:23;536.75;;;276.13;;
15883;SDS011;8040;50.254;10.960;2023-09-08T05:32:49;525.92;;;277.25;;
15883;SDS011;8040;50.254;10.960;2023-09-08T05:35:14;526.87;;;280.73;;
15883;SDS011;8040;50.254;10.960;2023-09-08T05:37:40;524.47;;;282.23;;
15883;SDS011;8040;50.254;10.960;2023-09-08T05:40:05;512.23;;;286.17;;
15883;SDS011;8040;50.254;10.960;2023-09-08T05:42:37;533.42;;;294.60;;
15883;SDS011;8040;50.254;10.960;2023-09-08T05:45:02;521.23;;;293.73;;
15883;SDS011;8040;50.254;10.960;2023-09-08T05:47:28;493.13;;;259.80;;
15883;SDS011;8040;50.254;10.960;2023-09-08T05:49:53;490.20;;;258.27;;
15883;SDS011;8040;50.254;10.960;2023-09-08T05:52:18;500.02;;;266.60;;
15883;SDS011;8040;50.254;10.960;2023-09-08T05:54:44;501.93;;;273.73;;
15883;SDS011;8040;50.254;10.960;2023-09-08T05:57:09;502.43;;;273.90;;
15883;SDS011;8040;50.254;10.960;2023-09-08T05:59:34;485.17;;;269.02;;
15883;SDS011;8040;50.254;10.960;2023-09-08T06:02:00;531.80;;;289.10;;
15883;SDS011;8040;50.254;10.960;2023-09-08T06:04:31;476.17;;;265.40;;
15883;SDS011;8040;50.254;10.960;2023-09-08T06:06:57;496.40;;;270.20;;
15883;SDS011;8040;50.254;10.960;2023-09-08T06:09:23;496.30;;;271.03;;
15883;SDS011;8040;50.254;10.960;2023-09-08T06:11:48;507.20;;;277.93;;
15883;SDS011;8040;50.254;10.960;2023-09-08T06:14:13;500.77;;;269.77;;
15883;SDS011;8040;50.254;10.960;2023-09-08T06:16:39;499.83;;;285.93;;
15883;SDS011;8040;50.254;10.960;2023-09-08T06:19:05;500.02;;;269.80;;
15883;SDS011;8040;50.254;10.960;2023-09-08T06:21:30;512.47;;;270.67;;
15883;SDS011;8040;50.254;10.960;2023-09-08T06:23:56;494.73;;;271.90;;
15883;SDS011;8040;50.254;10.960;2023-09-08T06:26:23;509.52;;;269.00;;
15883;SDS011;8040;50.254;10.960;2023-09-08T06:28:48;505.98;;;265.33;;
15883;SDS011;8040;50.254;10.960;2023-09-08T06:31:14;496.90;;;256.90;;
15883;SDS011;8040;50.254;10.960;2023-09-08T06:33:40;505.25;;;266.83;;
15883;SDS011;8040;50.254;10.960;2023-09-08T06:36:05;503.38;;;260.98;;
15883;SDS011;8040;50.254;10.960;2023-09-08T06:38:32;512.23;;;262.63;;
15883;SDS011;8040;50.254;10.960;2023-09-08T06:40:58;506.23;;;266.52;;
15883;SDS011;8040;50.254;10.960;2023-09-08T06:43:23;495.67;;;257.20;;
15883;SDS011;8040;50.254;10.960;2023-09-08T06:45:52;472.90;;;252.20;;
15883;SDS011;8040;50.254;10.960;2023-09-08T06:51:58;515.03;;;271.42;;
15883;SDS011;8040;50.254;10.960;2023-09-08T06:54:24;527.75;;;274.38;;
15883;SDS011;8040;50.254;10.960;2023-09-08T06:56:49;512.37;;;268.87;;
15883;SDS011;8040;50.254;10.960;2023-09-08T06:59:14;525.33;;;272.77;;
15883;SDS011;8040;50.254;10.960;2023-09-08T07:01:40;509.50;;;269.67;;
15883;SDS011;8040;50.254;10.960;2023-09-08T07:04:05;500.98;;;264.85;;
15883;SDS011;8040;50.254;10.960;2023-09-08T07:06:31;503.23;;;266.97;;
15883;SDS011;8040;50.254;10.960;2023-09-08T07:08:56;522.23;;;277.20;;
15883;SDS011;8040;50.254;10.960;2023-09-08T07:11:21;537.30;;;277.52;;
15883;SDS011;8040;50.254;10.960;2023-09-08T07:13:47;535.60;;;281.37;;
15883;SDS011;8040;50.254;10.960;2023-09-08T07:16:12;529.67;;;280.90;;
15883;SDS011;8040;50.254;10.960;2023-09-08T07:18:38;514.38;;;272.95;;
15883;SDS011;8040;50.254;10.960;2023-09-08T07:21:03;518.37;;;278.20;;
15883;SDS011;8040;50.254;10.960;2023-09-08T07:23:29;521.37;;;276.07;;
15883;SDS011;8040;50.254;10.960;2023-09-08T07:25:54;506.10;;;273.00;;
15883;SDS011;8040;50.254;10.960;2023-09-08T07:28:20;523.93;;;284.47;;
15883;SDS011;8040;50.254;10.960;2023-09-08T07:30:45;512.05;;;279.13;;
15883;SDS011;8040;50.254;10.960;2023-09-08T07:33:10;508.73;;;280.40;;
15883;SDS011;8040;50.254;10.960;2023-09-08T07:35:40;519.73;;;286.63;;
15883;SDS011;8040;50.254;10.960;2023-09-08T07:38:08;499.85;;;272.38;;
15883;SDS011;8040;50.254;10.960;2023-09-08T07:40:34;524.80;;;292.27;;
15883;SDS011;8040;50.254;10.960;2023-09-08T07:43:00;512.88;;;276.52;;
15883;SDS011;8040;50.254;10.960;2023-09-08T07:45:26;536.97;;;334.03;;
15883;SDS011;8040;50.254;10.960;2023-09-08T07:47:51;560.13;;;339.40;;
15883;SDS011;8040;50.254;10.960;2023-09-08T07:52:45;554.85;;;345.25;;
15883;SDS011;8040;50.254;10.960;2023-09-08T07:55:11;552.15;;;346.40;;
15883;SDS011;8040;50.254;10.960;2023-09-08T07:57:36;555.58;;;347.73;;
15883;SDS011;8040;50.254;10.960;2023-09-08T08:00:02;544.60;;;354.25;;
15883;SDS011;8040;50.254;10.960;2023-09-08T08:02:29;563.58;;;360.45;;
15883;SDS011;8040;50.254;10.960;2023-09-08T08:04:55;546.17;;;359.20;;
15883;SDS011;8040;50.254;10.960;2023-09-08T08:07:20;547.63;;;364.63;;
15883;SDS011;8040;50.254;10.960;2023-09-08T08:09:46;568.07;;;374.90;;
15883;SDS011;8040;50.254;10.960;2023-09-08T08:12:11;568.03;;;384.17;;
15883;SDS011;8040;50.254;10.960;2023-09-08T08:14:37;557.10;;;378.83;;
15883;SDS011;8040;50.254;10.960;2023-09-08T08:17:02;541.78;;;373.45;;
15883;SDS011;8040;50.254;10.960;2023-09-08T08:19:28;549.03;;;378.52;;
15883;SDS011;8040;50.254;10.960;2023-09-08T08:21:53;573.40;;;389.38;;
15883;SDS011;8040;50.254;10.960;2023-09-08T08:24:21;633.70;;;416.42;;
15883;SDS011;8040;50.254;10.960;2023-09-08T08:26:54;587.27;;;440.97;;
15883;SDS011;8040;50.254;10.960;2023-09-08T08:29:43;571.10;;;424.83;;
15883;SDS011;8040;50.254;10.960;2023-09-08T08:32:27;572.33;;;393.33;;
15883;SDS011;8040;50.254;10.960;2023-09-08T08:34:53;549.90;;;388.42;;
15883;SDS011;8040;50.254;10.960;2023-09-08T08:37:18;569.87;;;397.17;;
15883;SDS011;8040;50.254;10.960;2023-09-08T08:39:47;571.60;;;400.57;;
15883;SDS011;8040;50.254;10.960;2023-09-08T08:42:12;567.38;;;391.92;;
15883;SDS011;8040;50.254;10.960;2023-09-08T08:44:39;569.07;;;397.47;;
15883;SDS011;8040;50.254;10.960;2023-09-08T08:47:06;596.78;;;406.27;;
15883;SDS011;8040;50.254;10.960;2023-09-08T08:49:32;575.07;;;397.40;;
15883;SDS011;8040;50.254;10.960;2023-09-08T08:51:58;593.25;;;409.45;;
15883;SDS011;8040;50.254;10.960;2023-09-08T08:54:33;586.97;;;402.77;;
15883;SDS011;8040;50.254;10.960;2023-09-08T08:57:06;579.20;;;401.15;;
15883;SDS011;8040;50.254;10.960;2023-09-08T08:59:32;575.30;;;398.20;;
15883;SDS011;8040;50.254;10.960;2023-09-08T09:01:58;599.53;;;410.67;;
15883;SDS011;8040;50.254;10.960;2023-09-08T09:04:24;570.43;;;396.37;;
15883;SDS011;8040;50.254;10.960;2023-09-08T09:06:50;596.83;;;414.10;;
15883;SDS011;8040;50.254;10.960;2023-09-08T09:09:16;581.35;;;420.55;;
15883;SDS011;8040;50.254;10.960;2023-09-08T09:11:41;575.47;;;399.35;;
15883;SDS011;8040;50.254;10.960;2023-09-08T09:14:08;583.20;;;390.42;;
15883;SDS011;8040;50.254;10.960;2023-09-08T09:16:42;521.83;;;312.05;;
15883;SDS011;8040;50.254;10.960;2023-09-08T09:19:09;526.00;;;310.70;;
15883;SDS011;8040;50.254;10.960;2023-09-08T09:21:42;520.88;;;307.75;;
15883;SDS011;8040;50.254;10.960;2023-09-08T09:24:13;541.20;;;316.65;;
15883;SDS011;8040;50.254;10.960;2023-09-08T09:26:39;545.72;;;319.83;;
15883;SDS011;8040;50.254;10.960;2023-09-08T09:29:11;531.43;;;314.97;;
15883;SDS011;8040;50.254;10.960;2023-09-08T09:31:43;534.88;;;319.10;;
15883;SDS011;8040;50.254;10.960;2023-09-08T09:34:15;533.90;;;317.90;;
15883;SDS011;8040;50.254;10.960;2023-09-08T09:36:42;537.58;;;322.38;;
15883;SDS011;8040;50.254;10.960;2023-09-08T09:39:08;517.38;;;312.65;;
15883;SDS011;8040;50.254;10.960;2023-09-08T09:41:33;548.63;;;323.83;;
15883;SDS011;8040;50.254;10.960;2023-09-08T09:43:59;564.60;;;330.08;;
15883;SDS011;8040;50.254;10.960;2023-09-08T09:46:27;528.47;;;316.30;;
15883;SDS011;8040;50.254;10.960;2023-09-08T09:48:54;523.75;;;315.88;;
15883;SDS011;8040;50.254;10.960;2023-09-08T09:51:21;519.28;;;316.27;;
15883;SDS011;8040;50.254;10.960;2023-09-08T09:53:51;528.60;;;319.80;;
15883;SDS011;8040;50.254;10.960;2023-09-08T09:56:17;514.53;;;311.50;;
15883;SDS011;8040;50.254;10.960;2023-09-08T09:58:43;515.53;;;317.55;;
15883;SDS011;8040;50.254;10.960;2023-09-08T10:01:11;537.70;;;325.27;;
15883;SDS011;8040;50.254;10.960;2023-09-08T10:03:39;531.35;;;323.38;;
15883;SDS011;8040;50.254;10.960;2023-09-08T10:06:05;523.80;;;316.17;;
15883;SDS011;8040;50.254;10.960;2023-09-08T10:08:33;520.22;;;317.23;;
15883;SDS011;8040;50.254;10.960;2023-09-08T10:11:02;517.92;;;320.98;;
15883;SDS011;8040;50.254;10.960;2023-09-08T10:13:31;529.55;;;322.38;;
15883;SDS011;8040;50.254;10.960;2023-09-08T10:16:03;538.22;;;328.65;;
15883;SDS011;8040;50.254;10.960;2023-09-08T10:18:30;527.58;;;320.40;;
15883;SDS011;8040;50.254;10.960;2023-09-08T10:20:59;528.00;;;324.88;;
15883;SDS011;8040;50.254;10.960;2023-09-08T10:23:38;530.95;;;321.23;;
15883;SDS011;8040;50.254;10.960;2023-09-08T10:26:09;528.58;;;323.30;;
15883;SDS011;8040;50.254;10.960;2023-09-08T10:32:16;523.83;;;323.23;;
15883;SDS011;8040;50.254;10.960;2023-09-08T10:34:43;546.50;;;335.08;;
15883;SDS011;8040;50.254;10.960;2023-09-08T10:37:23;525.67;;;320.20;;
15883;SDS011;8040;50.254;10.960;2023-09-08T10:42:47;529.27;;;325.97;;
15883;SDS011;8040;50.254;10.960;2023-09-08T10:45:19;515.07;;;323.77;;
15883;SDS011;8040;50.254;10.960;2023-09-08T10:50:17;513.50;;;317.47;;
15883;SDS011;8040;50.254;10.960;2023-09-08T10:55:36;527.40;;;327.48;;
15883;SDS011;8040;50.254;10.960;2023-09-08T10:58:03;548.13;;;336.23;;
15883;SDS011;8040;50.254;10.960;2023-09-08T11:00:53;527.90;;;327.63;;
15883;SDS011;8040;50.254;10.960;2023-09-08T11:06:02;545.22;;;338.23;;
15883;SDS011;8040;50.254;10.960;2023-09-08T11:08:28;537.35;;;337.30;;
15883;SDS011;8040;50.254;10.960;2023-09-08T11:10:54;531.38;;;330.20;;
15883;SDS011;8040;50.254;10.960;2023-09-08T11:13:23;519.05;;;331.45;;
15883;SDS011;8040;50.254;10.960;2023-09-08T11:15:52;526.20;;;336.90;;
15883;SDS011;8040;50.254;10.960;2023-09-08T11:18:25;529.15;;;332.48;;
15883;SDS011;8040;50.254;10.960;2023-09-08T11:20:51;521.50;;;331.13;;
15883;SDS011;8040;50.254;10.960;2023-09-08T11:23:17;538.72;;;339.70;;
15883;SDS011;8040;50.254;10.960;2023-09-08T11:25:43;522.07;;;330.20;;
15883;SDS011;8040;50.254;10.960;2023-09-08T11:28:08;533.70;;;337.30;;
15883;SDS011;8040;50.254;10.960;2023-09-08T11:30:34;539.08;;;338.38;;
15883;SDS011;8040;50.254;10.960;2023-09-08T11:33:01;548.72;;;348.13;;
15883;SDS011;8040;50.254;10.960;2023-09-08T11:35:27;562.85;;;351.98;;
15883;SDS011;8040;50.254;10.960;2023-09-08T11:37:53;550.53;;;343.87;;
15883;SDS011;8040;50.254;10.960;2023-09-08T11:40:23;548.70;;;346.52;;
15883;SDS011;8040;50.254;10.960;2023-09-08T11:42:48;539.40;;;346.43;;
15883;SDS011;8040;50.254;10.960;2023-09-08T11:45:14;538.03;;;344.52;;
15883;SDS011;8040;50.254;10.960;2023-09-08T11:47:43;534.22;;;338.55;;
15883;SDS011;8040;50.254;10.960;2023-09-08T11:50:09;513.40;;;328.90;;
15883;SDS011;8040;50.254;10.960;2023-09-08T11:52:46;530.47;;;336.20;;
15883;SDS011;8040;50.254;10.960;2023-09-08T11:55:13;529.70;;;334.60;;
15883;SDS011;8040;50.254;10.960;2023-09-08T11:57:42;512.25;;;329.77;;
15883;SDS011;8040;50.254;10.960;2023-09-08T12:00:10;516.92;;;327.25;;
15883;SDS011;8040;50.254;10.960;2023-09-08T12:02:41;517.35;;;329.95;;
15883;SDS011;8040;50.254;10.960;2023-09-08T12:05:10;529.42;;;338.42;;
15883;SDS011;8040;50.254;10.960;2023-09-08T12:07:37;522.03;;;332.33;;
15883;SDS011;8040;50.254;10.960;2023-09-08T12:10:09;516.45;;;335.33;;
15883;SDS011;8040;50.254;10.960;2023-09-08T12:12:45;537.80;;;343.87;;
15883;SDS011;8040;50.254;10.960;2023-09-08T12:15:29;554.45;;;353.23;;
15883;SDS011;8040;50.254;10.960;2023-09-08T12:18:02;518.28;;;341.38;;
15883;SDS011;8040;50.254;10.960;2023-09-08T12:20:29;520.00;;;339.27;;
15883;SDS011;8040;50.254;10.960;2023-09-08T12:22:57;519.35;;;342.42;;
15883;SDS011;8040;50.254;10.960;2023-09-08T12:25:24;522.70;;;332.58;;
15883;SDS011;8040;50.254;10.960;2023-09-08T12:27:50;513.92;;;336.60;;
15883;SDS011;8040;50.254;10.960;2023-09-08T12:30:20;516.30;;;338.88;;
15883;SDS011;8040;50.254;10.960;2023-09-08T12:32:47;522.60;;;341.07;;
15883;SDS011;8040;50.254;10.960;2023-09-08T12:35:23;527.20;;;343.27;;
15883;SDS011;8040;50.254;10.960;2023-09-08T12:38:02;513.63;;;337.67;;
15883;SDS011;8040;50.254;10.960;2023-09-08T12:40:30;493.20;;;326.13;;
15883;SDS011;8040;50.254;10.960;2023-09-08T12:42:57;492.02;;;330.08;;
15883;SDS011;8040;50.254;10.960;2023-09-08T12:45:25;507.67;;;332.37;;
15883;SDS011;8040;50.254;10.960;2023-09-08T12:47:51;489.85;;;323.83;;
15883;SDS011;8040;50.254;10.960;2023-09-08T12:50:19;516.50;;;338.55;;
15883;SDS011;8040;50.254;10.960;2023-09-08T12:52:45;523.63;;;340.90;;
15883;SDS011;8040;50.254;10.960;2023-09-08T12:55:11;526.00;;;339.73;;
15883;SDS011;8040;50.254;10.960;2023-09-08T12:57:36;537.70;;;346.37;;
15883;SDS011;8040;50.254;10.960;2023-09-08T13:00:02;545.77;;;348.93;;
15883;SDS011;8040;50.254;10.960;2023-09-08T13:02:28;518.58;;;346.08;;
15883;SDS011;8040;50.254;10.960;2023-09-08T13:04:54;516.70;;;340.43;;
15883;SDS011;8040;50.254;10.960;2023-09-08T13:07:21;530.88;;;349.67;;
15883;SDS011;8040;50.254;10.960;2023-09-08T13:09:47;524.88;;;347.05;;
15883;SDS011;8040;50.254;10.960;2023-09-08T13:12:12;546.13;;;361.17;;
15883;SDS011;8040;50.254;10.960;2023-09-08T13:14:41;512.75;;;344.48;;
15883;SDS011;8040;50.254;10.960;2023-09-08T13:17:08;540.42;;;357.58;;
15883;SDS011;8040;50.254;10.960;2023-09-08T13:19:35;531.50;;;350.20;;
15883;SDS011;8040;50.254;10.960;2023-09-08T13:22:02;531.45;;;351.95;;
15883;SDS011;8040;50.254;10.960;2023-09-08T13:24:29;529.33;;;349.40;;
15883;SDS011;8040;50.254;10.960;2023-09-08T13:26:54;541.23;;;359.50;;
15883;SDS011;8040;50.254;10.960;2023-09-08T13:29:20;545.17;;;358.53;;
15883;SDS011;8040;50.254;10.960;2023-09-08T13:31:46;557.35;;;370.17;;
15883;SDS011;8040;50.254;10.960;2023-09-08T13:34:11;544.57;;;360.43;;
15883;SDS011;8040;50.254;10.960;2023-09-08T13:36:37;544.03;;;363.23;;
15883;SDS011;8040;50.254;10.960;2023-09-08T13:39:02;525.57;;;359.87;;
15883;SDS011;8040;50.254;10.960;2023-09-08T13:41:44;541.37;;;364.33;;
15883;SDS011;8040;50.254;10.960;2023-09-08T13:44:20;533.72;;;358.88;;
15883;SDS011;8040;50.254;10.960;2023-09-08T13:46:47;528.95;;;356.73;;
15883;SDS011;8040;50.254;10.960;2023-09-08T13:49:13;514.97;;;354.67;;
15883;SDS011;8040;50.254;10.960;2023-09-08T13:51:42;524.05;;;352.98;;
15883;SDS011;8040;50.254;10.960;2023-09-08T13:54:08;527.90;;;360.75;;
15883;SDS011;8040;50.254;10.960;2023-09-08T13:56:34;526.00;;;354.10;;
15883;SDS011;8040;50.254;10.960;2023-09-08T13:59:00;506.92;;;345.35;;
15883;SDS011;8040;50.254;10.960;2023-09-08T14:01:26;512.40;;;347.75;;
15883;SDS011;8040;50.254;10.960;2023-09-08T14:03:54;516.97;;;356.67;;
15883;SDS011;8040;50.254;10.960;2023-09-08T14:06:20;522.28;;;354.08;;
15883;SDS011;8040;50.254;10.960;2023-09-08T14:08:46;520.00;;;355.67;;
15883;SDS011;8040;50.254;10.960;2023-09-08T14:11:12;506.13;;;347.55;;
15883;SDS011;8040;50.254;10.960;2023-09-08T14:13:39;513.00;;;339.50;;
15883;SDS011;8040;50.254;10.960;2023-09-08T14:16:04;503.47;;;338.83;;
15883;SDS011;8040;50.254;10.960;2023-09-08T14:18:30;513.33;;;342.17;;
15883;SDS011;8040;50.254;10.960;2023-09-08T14:20:55;518.35;;;345.50;;
15883;SDS011;8040;50.254;10.960;2023-09-08T14:23:21;588.70;;;371.38;;
15883;SDS011;8040;50.254;10.960;2023-09-08T14:25:46;535.10;;;351.23;;
15883;SDS011;8040;50.254;10.960;2023-09-08T14:28:12;537.90;;;351.73;;
15883;SDS011;8040;50.254;10.960;2023-09-08T14:30:37;523.17;;;352.13;;